Nearby METAR Reports

 

KEDC - Austin Exec, Texas, USA
Distance from station: SSE 10mi, 17km
Updated: Tue, 16-Oct-2018 2:35am CDT
Light rain, Overcast
Light rain, Overcast
 Wind from N
Wind: N 12 mph , 19 km/h
Temperature: 46°F , 8°C
Wind Chill: 40°F , 4°C
Dew Point: 46°F , 8°C
Humidity: 100%
Barometer: 30.17 inHg , 1021.7 hPa
Summary: Light rain
Clouds: Overcast
Visibility: 4 miles , 6 km
Cloud details: Partly cloudy 400 ft
Overcast 900 ft
2018/10/16 07:35 KEDC 160735Z AUTO 01010KT 4SM -RA SCT004 OVC009 08/08 A3017 RMK AO2 P0018
KGTU - Georgetown, Texas, USA
Distance from station: NNW 11mi, 17km
Updated: Tue, 16-Oct-2018 1:56am CDT
Light rain, Overcast
Light rain, Overcast
 Wind from N
Wind: N 9 mph , 15 km/h, Gust: 21 mph , 33 km/h
Temperature: 46°F , 8°C
Wind Chill: 41°F , 5°C
Dew Point: 45°F , 7°C
Humidity: 93%
Barometer: 30.19 inHg , 1022.4 hPa
Summary: Light rain
Clouds: Overcast
Visibility: 10 miles , 16 km
Cloud details: Overcast 700 ft
2018/10/16 06:56 KGTU 160656Z AUTO 36008G18KT 10SM -RA OVC007 08/07 A3019 RMK AO2 SLP226 P0026 T00780072
 
KATT - Austin/Mabry, Texas, USA
Distance from station: SSW 18mi, 30km
Updated: Tue, 16-Oct-2018 2:26am CDT
Light rain, Mist, Overcast
Light rain, Mist, Overcast
 Wind from varies
Wind: varies 7 mph , 11 km/h
Temperature: 46°F , 8°C
Wind Chill: 42°F , 6°C
Dew Point: 45°F , 7°C
Humidity: 93%
Barometer: 30.16 inHg , 1021.3 hPa
Summary: Light rain, Mist
Clouds: Overcast
Visibility: 4 miles , 6 km
Cloud details: Few Clouds 800 ft
Mostly cloudy 2300 ft
Overcast 4200 ft
2018/10/16 07:26 KATT 160726Z AUTO VRB06KT 4SM -RA BR FEW008 BKN023 OVC042 08/07 A3016 RMK AO2 P0006 T00830072
KRYW - Lago Vista, Texas, USA
Distance from station: W 22mi, 35km
Updated: Tue, 16-Oct-2018 2:35am CDT
Heavy rain, Overcast
Heavy rain, Overcast
 Wind from N
Wind: N 7 mph , 11 km/h
Temperature: 45°F , 7°C
Wind Chill: 41°F , 5°C
Dew Point: 45°F , 7°C
Humidity: 100%
Barometer: 30.16 inHg , 1021.3 hPa
Summary: Heavy rain
Clouds: Overcast
Visibility: 7 miles , 11 km
Cloud details: Overcast 300 ft
2018/10/16 07:35 KRYW 160735Z AUTO 01006KT 7SM +RA OVC003 07/07 A3016 RMK AO2 LTG DSNT SE P0009 T00720072
 
KAUS - Austin, Texas, USA
Distance from station: S 25mi, 41km
Updated: Tue, 16-Oct-2018 2:24am CDT
Light rain, Overcast
Light rain, Overcast
 Wind from N
Wind: N 8 mph , 13 km/h
Temperature: 48°F , 9°C
Wind Chill: 44°F , 7°C
Dew Point: 46°F , 8°C
Humidity: 94%
Barometer: 30.15 inHg , 1021 hPa
Summary: Light rain
Clouds: Overcast
Visibility: 8 miles , 13 km
Cloud details: Few Clouds 700 ft
Mostly cloudy 1400 ft
Overcast 2500 ft
2018/10/16 07:24 KAUS 160724Z 35007KT 8SM -RA FEW007 BKN014 OVC025 09/08 A3015 RMK AO2 P0009 T00890078
KILE - Killeen Muni, Texas, USA
Distance from station: N 36mi, 58km
Updated: Tue, 16-Oct-2018 1:56am CDT
Light rain, Overcast
Light rain, Overcast
 Wind from N
Wind: N 17 mph , 28 km/h, Gust: 24 mph , 39 km/h
Temperature: 45°F , 7°C
Wind Chill: 38°F , 3°C
Dew Point: 45°F , 7°C
Humidity: 100%
Barometer: 30.14 inHg , 1020.7 hPa
Summary: Light rain
Clouds: Overcast
Visibility: 10 miles , 16 km
Cloud details: Overcast 600 ft
2018/10/16 06:56 KILE 160656Z AUTO 36015G21KT 10SM -RA OVC006 07/07 A3014 RMK AO2 RAE00B43 PRESFR SLP230 P0001 T00720067
 
KGRK - Gray/Ft Hood, Texas, USA
Distance from station: NNW 38mi, 62km
Updated: Tue, 16-Oct-2018 2:49am CDT
Rain, Mist, Overcast
Rain, Mist, Overcast
 Wind from NNW
Wind: NNW 10 mph , 17 km/h
Temperature: 45°F , 7°C
Wind Chill: 40°F , 4°C
Dew Point: 43°F , 6°C
Humidity: 93%
Barometer: 30.19 inHg , 1022.4 hPa
Summary: Rain, Mist
Clouds: Overcast
Visibility: 3 miles , 5 km
Cloud details: Partly cloudy 700 ft
Overcast 2500 ft
2018/10/16 07:49 KGRK 160749Z AUTO 34009KT 3SM RA BR SCT007 OVC025 07/06 A3019 RMK AO2 VIS 1 1/8 RWY15 CIG 007V026 CIG 006 RWY15 SLP228
KBMQ - Burnet, Texas, USA
Distance from station: WNW 39mi, 64km
Updated: Tue, 16-Oct-2018 2:44am CDT
Rain, Overcast
Rain, Overcast
 Wind from NNW
Wind: NNW 6 mph , 9 km/h
Temperature: 45°F , 7°C
Wind Chill: 42°F , 6°C
Dew Point: 43°F , 6°C
Humidity: 93%
Barometer: 30.20 inHg , 1022.7 hPa
Summary: Rain
Clouds: Overcast
Visibility: 7 miles , 11 km
Cloud details: Mostly cloudy 900 ft
Mostly cloudy 2500 ft
Overcast 6000 ft
2018/10/16 07:44 KBMQ 160744Z AUTO 33005KT 7SM RA BKN009 BKN025 OVC060 07/06 A3020 RMK AO2 P0018 T00720061 $
 
KHLR - Ft Hood/Killeen, Texas, USA
Distance from station: N 41mi, 66km
Updated: Tue, 16-Oct-2018 1:58am CDT
Rain, Mist, Overcast
Rain, Mist, Overcast
 Wind from N
Wind: N 18 mph , 30 km/h, Gust: 23 mph , 37 km/h
Temperature: 45°F , 7°C
Wind Chill: 37°F , 3°C
Dew Point: 45°F , 7°C
Humidity: 100%
Barometer: 30.11 inHg , 1019.6 hPa
Summary: Rain, Mist
Clouds: Overcast
Visibility: 1 3/8 miles , 2.2 km
Cloud details: Overcast 600 ft
2018/10/16 06:58 KHLR 160658Z AUTO 01016G20KT 1 3/8SM RA BR OVC006 07/07 A3011 RMK AO2 VIS 1 3/8V2 RAE10RAB40 PRESFR SLP198 P0001
KTPL - Temple/Miller, Texas, USA
Distance from station: NNE 42mi, 68km
Updated: Tue, 16-Oct-2018 2:51am CDT
Light rain, Overcast
Light rain, Overcast
 Wind from N
Wind: N 17 mph , 28 km/h, Gust: 23 mph , 37 km/h
Barometer: 30.17 inHg , 1021.7 hPa
Summary: Light rain
Clouds: Overcast
Visibility: 10 miles , 16 km
Cloud details: Overcast 800 ft
2018/10/16 07:51 KTPL 160751Z AUTO 01015G20KT 10SM -RA OVC008 A3017 RMK AO2 RAB03 CIG 005V010 SLPNO P0011 FZRANO $
 
KT35 - Cameron, Texas, USA
Distance from station: ENE 45mi, 72km
Updated: Tue, 16-Oct-2018 2:35am CDT
Heavy rain, Overcast
Heavy rain, Overcast
 Wind from N
Wind: N 15 mph , 24 km/h, Gust: 20 mph , 31 km/h
Temperature: 46°F , 8°C
Wind Chill: 40°F , 4°C
Dew Point: 46°F , 8°C
Humidity: 100%
Barometer: 30.16 inHg , 1021.3 hPa
Summary: Heavy rain
Clouds: Overcast
Visibility: 1 1/2 miles , 2.4 km
Cloud details: Overcast 700 ft
2018/10/16 07:35 KT35 160735Z AUTO 35013G17KT 1 1/2SM +RA OVC007 08/08 A3016 RMK AO2 VIS 1/4V4 P0025 T00800075
KDZB - Horseshoe Bay, Texas, USA
Distance from station: W 45mi, 73km
Updated: Tue, 16-Oct-2018 2:35am CDT
Light rain, Overcast
Light rain, Overcast
 Wind from NW
Wind: NW 8 mph , 13 km/h
Temperature: 46°F , 8°C
Wind Chill: 42°F , 6°C
Dew Point: 45°F , 7°C
Humidity: 93%
Barometer: 30.21 inHg , 1023 hPa
Summary: Light rain
Clouds: Overcast
Visibility: 4 miles , 6 km
Cloud details: Mostly cloudy 700 ft
Overcast 1600 ft
2018/10/16 07:35 KDZB 160735Z AUTO 32007KT 4SM -RA BKN007 OVC016 08/07 A3021 RMK AO2 LTG DSNT SE P0006 T00750070
 
KGYB - Giddings-Lee, Texas, USA
Distance from station: SE 45mi, 73km
Updated: Tue, 16-Oct-2018 2:35am CDT
Drizzle, Overcast
Drizzle, Overcast
 Wind from N
Wind: N 8 mph , 13 km/h
Temperature: 45°F , 7°C
Wind Chill: 41°F , 5°C
Dew Point: 43°F , 6°C
Humidity: 93%
Barometer: 30.14 inHg , 1020.7 hPa
Summary: Drizzle
Clouds: Overcast
Visibility: 10 miles , 16 km
Cloud details: Overcast 700 ft
2018/10/16 07:35 KGYB 160735Z AUTO 35007KT 10SM DZ OVC007 07/06 A3014 RMK AO2 T00680062
KHYI - San Marcos, Texas, USA
Distance from station: SSW 48mi, 78km
Updated: Tue, 16-Oct-2018 1:56am CDT
Haze, Overcast
Haze, Overcast
 
Barometer: 30.15 inHg , 1021 hPa
Summary: Haze
Clouds: Overcast
Visibility: 6 miles , 10 km
Cloud details: Mostly cloudy 900 ft
Overcast 1700 ft
2018/10/16 06:56 KHYI 160656Z AUTO 6SM HZ BKN009 OVC017 A3015 RMK AO2 RAE47 CIG 007V013 SLPNO P0006 FZRANO $
 
KLZZ - Lampasas, Texas, USA
Distance from station: NW 52mi, 84km
Updated: Tue, 16-Oct-2018 2:35am CDT
Light snow, Overcast
Light snow, Overcast
 Wind from W
Wind: W 6 mph , 9 km/h
Temperature: 43°F , 6°C
Wind Chill: 39°F , 4°C
Dew Point: 43°F , 6°C
Humidity: 100%
Barometer: 30.22 inHg , 1023.4 hPa
Summary: Light Snow
Clouds: Overcast
Visibility: 2 miles , 3 km
Cloud details: Mostly cloudy 700 ft
Overcast 1300 ft
2018/10/16 07:35 KLZZ 160735Z AUTO 28005KT 2SM -SN BKN007 OVC013 06/06 A3022 RMK AO2 LTG DSNT SE P0030 T00620057
KRWV - Caldwell, Texas, USA
Distance from station: E 54mi, 87km
Updated: Tue, 16-Oct-2018 2:35am CDT
Overcast
Overcast
 Wind from N
Wind: N 8 mph , 13 km/h, Gust: 16 mph , 26 km/h
Temperature: 48°F , 9°C
Wind Chill: 44°F , 7°C
Dew Point: 46°F , 8°C
Humidity: 94%
Barometer: 30.14 inHg , 1020.7 hPa
Clouds: Overcast
Visibility: 10 miles , 16 km
Cloud details: Overcast 700 ft
2018/10/16 07:35 KRWV 160735Z AUTO 35007G14KT 10SM OVC007 09/08 A3014 RMK AO2 LTG DSNT SE T00870079
 
K3T5 - La Grange, Texas, USA
Distance from station: SE 59mi, 95km
Updated: Tue, 16-Oct-2018 2:35am CDT
Drizzle, Overcast
Drizzle, Overcast
 Wind from N
Wind: N 7 mph , 11 km/h
Temperature: 48°F , 9°C
Wind Chill: 45°F , 7°C
Dew Point: 48°F , 9°C
Humidity: 100%
Barometer: 30.11 inHg , 1019.6 hPa
Summary: Drizzle
Clouds: Overcast
Visibility: 7 miles , 11 km
Cloud details: Overcast 600 ft
2018/10/16 07:35 K3T5 160735Z AUTO 35006KT 7SM DZ OVC006 09/09 A3011 RMK AO2 LTG DSNT SE T00930093
KGOP - Gatesville, Texas, USA
Distance from station: N 61mi, 99km
Updated: Tue, 16-Oct-2018 2:35am CDT
Light rain, Overcast
Light rain, Overcast
 Wind from N
Wind: N 7 mph , 11 km/h, Gust: 17 mph , 28 km/h
Temperature: 45°F , 7°C
Wind Chill: 41°F , 5°C
Dew Point: 45°F , 7°C
Humidity: 100%
Barometer: 30.20 inHg , 1022.7 hPa
Summary: Light rain
Clouds: Overcast
Visibility: 4 miles , 6 km
Cloud details: Mostly cloudy 900 ft
Overcast 1300 ft
2018/10/16 07:35 KGOP 160735Z AUTO 01006G15KT 4SM -RA BKN009 OVC013 07/07 A3020 RMK AO2
 
KLHB - Hearne Muni, Texas, USA
Distance from station: ENE 63mi, 101km
Updated: Tue, 16-Oct-2018 2:35am CDT
Light rain, Overcast
Light rain, Overcast
 Wind from NNE
Wind: NNE 10 mph , 17 km/h, Gust: 17 mph , 28 km/h
Temperature: 48°F , 9°C
Wind Chill: 44°F , 7°C
Dew Point: 48°F , 9°C
Humidity: 100%
Barometer: 30.11 inHg , 1019.6 hPa
Summary: Light rain
Clouds: Overcast
Visibility: 10 miles , 16 km
Cloud details: Overcast 800 ft
2018/10/16 07:35 KLHB 160735Z AUTO 02009G15KT 10SM -RA OVC008 09/09 A3011 RMK AO2 T00860085
KBAZ - New Braunfels, Texas, USA
Distance from station: SSW 63mi, 102km
Updated: Tue, 16-Oct-2018 2:51am CDT
Light rain, Overcast
Light rain, Overcast
 Wind from NNW
Wind: NNW 8 mph , 13 km/h
Temperature: 46°F , 8°C
Wind Chill: 42°F , 6°C
Dew Point: 45°F , 7°C
Humidity: 93%
Barometer: 30.16 inHg , 1021.3 hPa
Summary: Light rain
Clouds: Overcast
Visibility: 10 miles , 16 km
Cloud details: Mostly cloudy 1200 ft
Overcast 1800 ft
2018/10/16 07:51 KBAZ 160751Z AUTO 33007KT 10SM -RA BKN012 OVC018 08/07 A3016 RMK AO2 SLP213 P0010 T00830072